sensor_id;sensor_type;location;lat;lon;timestamp;pressure;altitude;pressure_sealevel;temperature;humidity
78016;BME280;67223;51.102;5.882;2024-03-25T00:01:08;100279.97;;;5.32;100.00
78016;BME280;67223;51.102;5.882;2024-03-25T00:03:34;100273.75;;;5.33;100.00
78016;BME280;67223;51.102;5.882;2024-03-25T00:05:59;100267.91;;;5.28;100.00
78016;BME280;67223;51.102;5.882;2024-03-25T00:08:25;100268.84;;;5.27;100.00
78016;BME280;67223;51.102;5.882;2024-03-25T00:10:50;100269.19;;;5.22;100.00
78016;BME280;67223;51.102;5.882;2024-03-25T00:13:16;100270.13;;;5.21;100.00
78016;BME280;67223;51.102;5.882;2024-03-25T00:15:41;100266.94;;;5.16;100.00
78016;BME280;67223;51.102;5.882;2024-03-25T00:18:09;100267.16;;;5.13;100.00
78016;BME280;67223;51.102;5.882;2024-03-25T00:20:34;100269.06;;;5.11;100.00
78016;BME280;67223;51.102;5.882;2024-03-25T00:22:59;100259.72;;;5.05;100.00
78016;BME280;67223;51.102;5.882;2024-03-25T00:25:25;100253.66;;;5.03;100.00
78016;BME280;67223;51.102;5.882;2024-03-25T00:27:50;100253.81;;;5.02;100.00
78016;BME280;67223;51.102;5.882;2024-03-25T00:30:16;100247.84;;;4.98;100.00
78016;BME280;67223;51.102;5.882;2024-03-25T00:32:41;100246.19;;;4.97;100.00
78016;BME280;67223;51.102;5.882;2024-03-25T00:35:07;100240.03;;;4.97;100.00
78016;BME280;67223;51.102;5.882;2024-03-25T00:37:32;100246.28;;;4.96;100.00
78016;BME280;67223;51.102;5.882;2024-03-25T00:39:58;100239.38;;;4.93;100.00
78016;BME280;67223;51.102;5.882;2024-03-25T00:42:23;100244.88;;;4.90;100.00
78016;BME280;67223;51.102;5.882;2024-03-25T00:44:49;100244.97;;;4.89;100.00
78016;BME280;67223;51.102;5.882;2024-03-25T00:47:14;100247.53;;;4.90;100.00
78016;BME280;67223;51.102;5.882;2024-03-25T00:49:40;100244.25;;;4.87;100.00
78016;BME280;67223;51.102;5.882;2024-03-25T00:52:05;100243.41;;;4.86;100.00
78016;BME280;67223;51.102;5.882;2024-03-25T00:54:31;100240.84;;;4.85;100.00
78016;BME280;67223;51.102;5.882;2024-03-25T00:56:56;100242.47;;;4.87;100.00
78016;BME280;67223;51.102;5.882;2024-03-25T00:59:21;100239.91;;;4.86;100.00
78016;BME280;67223;51.102;5.882;2024-03-25T01:01:47;100241.91;;;4.82;100.00
78016;BME280;67223;51.102;5.882;2024-03-25T01:04:12;100249.94;;;4.81;100.00
78016;BME280;67223;51.102;5.882;2024-03-25T01:06:38;100249.09;;;4.80;100.00
78016;BME280;67223;51.102;5.882;2024-03-25T01:09:03;100237.03;;;4.76;100.00
78016;BME280;67223;51.102;5.882;2024-03-25T01:11:30;100228.78;;;4.68;100.00
78016;BME280;67223;51.102;5.882;2024-03-25T01:13:56;100226.22;;;4.66;100.00
78016;BME280;67223;51.102;5.882;2024-03-25T01:16:21;100234.47;;;4.62;100.00
78016;BME280;67223;51.102;5.882;2024-03-25T01:18:46;100233.53;;;4.63;100.00
78016;BME280;67223;51.102;5.882;2024-03-25T01:21:12;100234.66;;;4.59;100.00
78016;BME280;67223;51.102;5.882;2024-03-25T01:23:37;100230.88;;;4.63;100.00
78016;BME280;67223;51.102;5.882;2024-03-25T01:26:03;100230.13;;;4.61;100.00
78016;BME280;67223;51.102;5.882;2024-03-25T01:28:28;100228.63;;;4.57;100.00
78016;BME280;67223;51.102;5.882;2024-03-25T01:30:53;100223.53;;;4.54;100.00
78016;BME280;67223;51.102;5.882;2024-03-25T01:33:19;100230.19;;;4.47;100.00
78016;BME280;67223;51.102;5.882;2024-03-25T01:35:45;100226.78;;;4.45;100.00
78016;BME280;67223;51.102;5.882;2024-03-25T01:38:10;100221.63;;;4.43;100.00
78016;BME280;67223;51.102;5.882;2024-03-25T01:40:36;100223.59;;;4.40;100.00
78016;BME280;67223;51.102;5.882;2024-03-25T01:43:03;100226.44;;;4.37;100.00
78016;BME280;67223;51.102;5.882;2024-03-25T01:45:31;100218.69;;;4.33;100.00
78016;BME280;67223;51.102;5.882;2024-03-25T01:47:57;100212.47;;;4.34;100.00
78016;BME280;67223;51.102;5.882;2024-03-25T01:50:24;100217.75;;;4.34;100.00
78016;BME280;67223;51.102;5.882;2024-03-25T01:52:50;100209.81;;;4.34;100.00
78016;BME280;67223;51.102;5.882;2024-03-25T01:55:18;100208.97;;;4.34;100.00
78016;BME280;67223;51.102;5.882;2024-03-25T01:57:46;100206.47;;;4.32;100.00
78016;BME280;67223;51.102;5.882;2024-03-25T02:00:13;100211.84;;;4.31;100.00
78016;BME280;67223;51.102;5.882;2024-03-25T02:02:41;100207.41;;;4.31;100.00
78016;BME280;67223;51.102;5.882;2024-03-25T02:05:09;100204.94;;;4.28;100.00
78016;BME280;67223;51.102;5.882;2024-03-25T02:07:36;100200.72;;;4.26;100.00
78016;BME280;67223;51.102;5.882;2024-03-25T02:10:07;100202.50;;;4.25;100.00
78016;BME280;67223;51.102;5.882;2024-03-25T02:12:35;100198.38;;;4.21;100.00
78016;BME280;67223;51.102;5.882;2024-03-25T02:15:01;100197.53;;;4.21;100.00
78016;BME280;67223;51.102;5.882;2024-03-25T02:17:26;100199.63;;;4.16;100.00
78016;BME280;67223;51.102;5.882;2024-03-25T02:19:52;100191.78;;;4.14;100.00
78016;BME280;67223;51.102;5.882;2024-03-25T02:22:18;100196.22;;;4.14;100.00
78016;BME280;67223;51.102;5.882;2024-03-25T02:24:45;100197.38;;;4.10;100.00
78016;BME280;67223;51.102;5.882;2024-03-25T02:27:10;100194.00;;;4.08;100.00
78016;BME280;67223;51.102;5.882;2024-03-25T02:29:40;100190.50;;;4.07;100.00
78016;BME280;67223;51.102;5.882;2024-03-25T02:32:06;100194.94;;;4.07;100.00
78016;BME280;67223;51.102;5.882;2024-03-25T02:34:31;100187.19;;;4.04;100.00
78016;BME280;67223;51.102;5.882;2024-03-25T02:37:00;100183.72;;;4.03;100.00
78016;BME280;67223;51.102;5.882;2024-03-25T02:39:25;100168.06;;;4.00;100.00
78016;BME280;67223;51.102;5.882;2024-03-25T02:41:50;100177.91;;;3.98;100.00
78016;BME280;67223;51.102;5.882;2024-03-25T02:44:16;100170.06;;;3.97;100.00
78016;BME280;67223;51.102;5.882;2024-03-25T02:46:42;100170.16;;;3.95;100.00
78016;BME280;67223;51.102;5.882;2024-03-25T02:49:08;100164.03;;;3.95;100.00
78016;BME280;67223;51.102;5.882;2024-03-25T02:51:34;100160.75;;;3.91;100.00
78016;BME280;67223;51.102;5.882;2024-03-25T02:53:59;100159.97;;;3.89;100.00
78016;BME280;67223;51.102;5.882;2024-03-25T02:56:24;100160.19;;;3.86;100.00
78016;BME280;67223;51.102;5.882;2024-03-25T02:58:50;100155.84;;;3.85;100.00
78016;BME280;67223;51.102;5.882;2024-03-25T03:03:50;100134.00;;;3.83;100.00
78016;BME280;67223;51.102;5.882;2024-03-25T03:06:16;100134.06;;;3.81;100.00
78016;BME280;67223;51.102;5.882;2024-03-25T03:08:41;100133.31;;;3.79;100.00
78016;BME280;67223;51.102;5.882;2024-03-25T03:11:07;100137.88;;;3.77;100.00
78016;BME280;67223;51.102;5.882;2024-03-25T03:13:32;100131.28;;;3.70;100.00
78016;BME280;67223;51.102;5.882;2024-03-25T03:15:58;100132.41;;;3.66;100.00
78016;BME280;67223;51.102;5.882;2024-03-25T03:18:23;100127.91;;;3.68;100.00
78016;BME280;67223;51.102;5.882;2024-03-25T03:20:48;100130.72;;;3.65;100.00
78016;BME280;67223;51.102;5.882;2024-03-25T03:23:14;100124.81;;;3.62;100.00
78016;BME280;67223;51.102;5.882;2024-03-25T03:25:40;100120.16;;;3.65;100.00
78016;BME280;67223;51.102;5.882;2024-03-25T03:28:06;100131.88;;;3.61;100.00
78016;BME280;67223;51.102;5.882;2024-03-25T03:30:31;100127.44;;;3.62;100.00
78016;BME280;67223;51.102;5.882;2024-03-25T03:32:57;100138.28;;;3.57;100.00
78016;BME280;67223;51.102;5.882;2024-03-25T03:35:23;100139.16;;;3.58;100.00
78016;BME280;67223;51.102;5.882;2024-03-25T03:37:48;100139.22;;;3.56;100.00
78016;BME280;67223;51.102;5.882;2024-03-25T03:40:14;100132.38;;;3.54;100.00
78016;BME280;67223;51.102;5.882;2024-03-25T03:42:39;100134.47;;;3.49;100.00
78016;BME280;67223;51.102;5.882;2024-03-25T03:45:06;100138.75;;;3.50;100.00
78016;BME280;67223;51.102;5.882;2024-03-25T03:47:31;100138.69;;;3.51;100.00
78016;BME280;67223;51.102;5.882;2024-03-25T03:49:57;100139.75;;;3.49;100.00
78016;BME280;67223;51.102;5.882;2024-03-25T03:52:22;100129.81;;;3.52;100.00
78016;BME280;67223;51.102;5.882;2024-03-25T03:54:48;100126.34;;;3.52;100.00
78016;BME280;67223;51.102;5.882;2024-03-25T03:57:13;100123.06;;;3.48;100.00
78016;BME280;67223;51.102;5.882;2024-03-25T03:59:39;100120.50;;;3.46;100.00
78016;BME280;67223;51.102;5.882;2024-03-25T04:02:04;100123.13;;;3.46;100.00
78016;BME280;67223;51.102;5.882;2024-03-25T04:04:30;100116.44;;;3.41;100.00
78016;BME280;67223;51.102;5.882;2024-03-25T04:06:55;100116.94;;;3.33;100.00
78016;BME280;67223;51.102;5.882;2024-03-25T04:09:21;100113.28;;;3.22;100.00
78016;BME280;67223;51.102;5.882;2024-03-25T04:11:49;100116.56;;;3.25;100.00
78016;BME280;67223;51.102;5.882;2024-03-25T04:14:14;100110.34;;;3.26;100.00
78016;BME280;67223;51.102;5.882;2024-03-25T04:16:40;100113.00;;;3.26;100.00
78016;BME280;67223;51.102;5.882;2024-03-25T04:19:05;100106.00;;;3.25;100.00
78016;BME280;67223;51.102;5.882;2024-03-25T04:21:30;100112.34;;;3.23;100.00
78016;BME280;67223;51.102;5.882;2024-03-25T04:23:56;100105.16;;;3.25;100.00
78016;BME280;67223;51.102;5.882;2024-03-25T04:26:21;100107.91;;;3.23;100.00
78016;BME280;67223;51.102;5.882;2024-03-25T04:28:47;100103.75;;;3.19;100.00
78016;BME280;67223;51.102;5.882;2024-03-25T04:31:12;100095.03;;;3.19;100.00
78016;BME280;67223;51.102;5.882;2024-03-25T04:33:38;100095.84;;;3.19;100.00
78016;BME280;67223;51.102;5.882;2024-03-25T04:36:03;100103.75;;;3.19;100.00
78016;BME280;67223;51.102;5.882;2024-03-25T04:38:29;100106.59;;;3.16;100.00
78016;BME280;67223;51.102;5.882;2024-03-25T04:40:54;100107.09;;;3.09;100.00
78016;BME280;67223;51.102;5.882;2024-03-25T04:43:20;100110.66;;;3.08;100.00
78016;BME280;67223;51.102;5.882;2024-03-25T04:45:46;100101.91;;;3.07;100.00
78016;BME280;67223;51.102;5.882;2024-03-25T04:48:11;100100.28;;;3.04;100.00
78016;BME280;67223;51.102;5.882;2024-03-25T04:50:36;100102.91;;;3.04;100.00
78016;BME280;67223;51.102;5.882;2024-03-25T04:53:02;100102.06;;;3.04;100.00
78016;BME280;67223;51.102;5.882;2024-03-25T04:55:27;100096.78;;;3.04;100.00
78016;BME280;67223;51.102;5.882;2024-03-25T04:57:53;100101.50;;;2.99;100.00
78016;BME280;67223;51.102;5.882;2024-03-25T05:00:18;100100.78;;;2.97;100.00
78016;BME280;67223;51.102;5.882;2024-03-25T05:02:44;100094.16;;;2.90;100.00
78016;BME280;67223;51.102;5.882;2024-03-25T05:05:09;100098.59;;;2.89;100.00
78016;BME280;67223;51.102;5.882;2024-03-25T05:07:35;100095.13;;;2.89;100.00
78016;BME280;67223;51.102;5.882;2024-03-25T05:10:01;100099.44;;;2.90;100.00
78016;BME280;67223;51.102;5.882;2024-03-25T05:12:26;100097.94;;;2.86;100.00
78016;BME280;67223;51.102;5.882;2024-03-25T05:14:55;100106.97;;;2.82;100.00
78016;BME280;67223;51.102;5.882;2024-03-25T05:17:21;100097.38;;;2.81;100.00
78016;BME280;67223;51.102;5.882;2024-03-25T05:19:46;100103.78;;;2.77;100.00
78016;BME280;67223;51.102;5.882;2024-03-25T05:22:12;100098.72;;;2.74;100.00
78016;BME280;67223;51.102;5.882;2024-03-25T05:24:37;100100.47;;;2.59;100.00
78016;BME280;67223;51.102;5.882;2024-03-25T05:27:03;100106.41;;;2.63;100.00
78016;BME280;67223;51.102;5.882;2024-03-25T05:29:29;100096.53;;;2.66;100.00
78016;BME280;67223;51.102;5.882;2024-03-25T05:31:59;100098.13;;;2.69;100.00
78016;BME280;67223;51.102;5.882;2024-03-25T05:34:25;100096.25;;;2.71;100.00
78016;BME280;67223;51.102;5.882;2024-03-25T05:36:51;100104.91;;;2.73;100.00
78016;BME280;67223;51.102;5.882;2024-03-25T05:39:17;100109.25;;;2.74;100.00
78016;BME280;67223;51.102;5.882;2024-03-25T05:41:43;100102.44;;;2.70;100.00
78016;BME280;67223;51.102;5.882;2024-03-25T05:44:08;100095.31;;;2.72;100.00
78016;BME280;67223;51.102;5.882;2024-03-25T05:46:33;100103.97;;;2.74;100.00
78016;BME280;67223;51.102;5.882;2024-03-25T05:49:03;100099.94;;;2.68;100.00
78016;BME280;67223;51.102;5.882;2024-03-25T05:51:29;100100.66;;;2.70;100.00
78016;BME280;67223;51.102;5.882;2024-03-25T05:53:55;100105.66;;;2.75;100.00
78016;BME280;67223;51.102;5.882;2024-03-25T05:56:20;100102.06;;;2.76;100.00
78016;BME280;67223;51.102;5.882;2024-03-25T05:58:46;100101.06;;;2.78;100.00
78016;BME280;67223;51.102;5.882;2024-03-25T06:01:12;100097.56;;;2.78;100.00
78016;BME280;67223;51.102;5.882;2024-03-25T06:03:37;100103.28;;;2.56;100.00
78016;BME280;67223;51.102;5.882;2024-03-25T06:06:03;100095.88;;;2.63;100.00
78016;BME280;67223;51.102;5.882;2024-03-25T06:08:28;100097.75;;;2.60;100.00
78016;BME280;67223;51.102;5.882;2024-03-25T06:10:54;100093.41;;;2.59;100.00
78016;BME280;67223;51.102;5.882;2024-03-25T06:13:20;100086.63;;;2.70;100.00
78016;BME280;67223;51.102;5.882;2024-03-25T06:15:46;100080.34;;;2.72;100.00
78016;BME280;67223;51.102;5.882;2024-03-25T06:18:12;100078.72;;;2.70;100.00
78016;BME280;67223;51.102;5.882;2024-03-25T06:20:38;100067.81;;;2.76;100.00
78016;BME280;67223;51.102;5.882;2024-03-25T06:23:04;100057.66;;;2.84;100.00
78016;BME280;67223;51.102;5.882;2024-03-25T06:25:30;100058.09;;;2.90;100.00
78016;BME280;67223;51.102;5.882;2024-03-25T06:27:55;100059.16;;;2.88;100.00
78016;BME280;67223;51.102;5.882;2024-03-25T06:30:21;100043.97;;;2.91;100.00
78016;BME280;67223;51.102;5.882;2024-03-25T06:33:05;100047.81;;;3.00;100.00
78016;BME280;67223;51.102;5.882;2024-03-25T06:35:49;100043.03;;;3.07;100.00
78016;BME280;67223;51.102;5.882;2024-03-25T06:38:14;100044.13;;;3.17;100.00
78016;BME280;67223;51.102;5.882;2024-03-25T06:40:40;100038.22;;;3.13;100.00
78016;BME280;67223;51.102;5.882;2024-03-25T06:43:05;100036.78;;;3.22;100.00
78016;BME280;67223;51.102;5.882;2024-03-25T06:45:31;100035.72;;;3.24;100.00
78016;BME280;67223;51.102;5.882;2024-03-25T06:47:57;100031.75;;;3.31;100.00
78016;BME280;67223;51.102;5.882;2024-03-25T06:50:23;100033.59;;;3.43;100.00
78016;BME280;67223;51.102;5.882;2024-03-25T06:52:49;100026.38;;;3.60;100.00
78016;BME280;67223;51.102;5.882;2024-03-25T06:55:14;100031.16;;;3.67;100.00
78016;BME280;67223;51.102;5.882;2024-03-25T06:57:40;100020.06;;;3.75;100.00
78016;BME280;67223;51.102;5.882;2024-03-25T07:00:06;100020.06;;;3.75;100.00
78016;BME280;67223;51.102;5.882;2024-03-25T07:02:35;100020.75;;;3.91;100.00
78016;BME280;67223;51.102;5.882;2024-03-25T07:05:00;100018.44;;;3.99;100.00
78016;BME280;67223;51.102;5.882;2024-03-25T07:07:26;100018.16;;;4.16;100.00
78016;BME280;67223;51.102;5.882;2024-03-25T07:09:51;100018.47;;;4.24;100.00
78016;BME280;67223;51.102;5.882;2024-03-25T07:12:17;100011.41;;;4.38;100.00
78016;BME280;67223;51.102;5.882;2024-03-25T07:14:43;100011.28;;;4.52;100.00
78016;BME280;67223;51.102;5.882;2024-03-25T07:17:10;100012.84;;;4.80;100.00
78016;BME280;67223;51.102;5.882;2024-03-25T07:19:35;100014.44;;;4.82;100.00
78016;BME280;67223;51.102;5.882;2024-03-25T07:22:00;100018.00;;;4.94;100.00
78016;BME280;67223;51.102;5.882;2024-03-25T07:24:26;100020.72;;;5.05;100.00
78016;BME280;67223;51.102;5.882;2024-03-25T07:26:51;100022.59;;;5.15;100.00
78016;BME280;67223;51.102;5.882;2024-03-25T07:29:17;100014.94;;;5.24;100.00
78016;BME280;67223;51.102;5.882;2024-03-25T07:31:42;100014.56;;;5.41;100.00
78016;BME280;67223;51.102;5.882;2024-03-25T07:34:08;100019.69;;;5.55;100.00
78016;BME280;67223;51.102;5.882;2024-03-25T07:36:36;100022.16;;;5.69;100.00
78016;BME280;67223;51.102;5.882;2024-03-25T07:39:02;100026.16;;;5.87;100.00
78016;BME280;67223;51.102;5.882;2024-03-25T07:41:30;100033.50;;;5.95;100.00
78016;BME280;67223;51.102;5.882;2024-03-25T07:43:56;100029.59;;;6.12;100.00
78016;BME280;67223;51.102;5.882;2024-03-25T07:46:21;100029.13;;;6.29;100.00
78016;BME280;67223;51.102;5.882;2024-03-25T07:48:47;100037.88;;;6.42;100.00
78016;BME280;67223;51.102;5.882;2024-03-25T07:51:12;100044.72;;;6.44;100.00
78016;BME280;67223;51.102;5.882;2024-03-25T07:53:37;100050.28;;;6.53;100.00
78016;BME280;67223;51.102;5.882;2024-03-25T07:56:03;100053.06;;;6.73;100.00
78016;BME280;67223;51.102;5.882;2024-03-25T07:58:30;100058.88;;;6.78;100.00
78016;BME280;67223;51.102;5.882;2024-03-25T08:00:55;100063.47;;;6.99;100.00
78016;BME280;67223;51.102;5.882;2024-03-25T08:03:21;100075.41;;;7.15;100.00
78016;BME280;67223;51.102;5.882;2024-03-25T08:05:47;100078.41;;;7.33;100.00
78016;BME280;67223;51.102;5.882;2024-03-25T08:08:13;100096.97;;;7.66;100.00
78016;BME280;67223;51.102;5.882;2024-03-25T08:10:38;100101.03;;;7.82;100.00
78016;BME280;67223;51.102;5.882;2024-03-25T08:13:04;100103.41;;;7.96;100.00
78016;BME280;67223;51.102;5.882;2024-03-25T08:15:29;100108.41;;;8.10;100.00
78016;BME280;67223;51.102;5.882;2024-03-25T08:17:55;100127.31;;;8.28;100.00
78016;BME280;67223;51.102;5.882;2024-03-25T08:20:20;100149.69;;;8.36;100.00
78016;BME280;67223;51.102;5.882;2024-03-25T08:22:46;100148.88;;;8.56;100.00
78016;BME280;67223;51.102;5.882;2024-03-25T08:25:11;100143.69;;;8.76;100.00
78016;BME280;67223;51.102;5.882;2024-03-25T08:27:37;100169.91;;;9.01;100.00
78016;BME280;67223;51.102;5.882;2024-03-25T08:30:03;100158.81;;;9.57;100.00
78016;BME280;67223;51.102;5.882;2024-03-25T08:32:28;100171.22;;;9.77;100.00
78016;BME280;67223;51.102;5.882;2024-03-25T08:34:54;100192.03;;;9.92;100.00
78016;BME280;67223;51.102;5.882;2024-03-25T08:37:20;100204.25;;;9.85;100.00
78016;BME280;67223;51.102;5.882;2024-03-25T08:39:45;100203.81;;;10.20;100.00
78016;BME280;67223;51.102;5.882;2024-03-25T08:42:12;100199.47;;;10.67;100.00
78016;BME280;67223;51.102;5.882;2024-03-25T08:44:37;100227.03;;;10.77;100.00
78016;BME280;67223;51.102;5.882;2024-03-25T08:47:03;100257.13;;;10.70;100.00
78016;BME280;67223;51.102;5.882;2024-03-25T08:49:28;100246.97;;;10.83;100.00
78016;BME280;67223;51.102;5.882;2024-03-25T08:51:53;100260.47;;;11.10;100.00
78016;BME280;67223;51.102;5.882;2024-03-25T08:54:19;100261.56;;;11.27;100.00
78016;BME280;67223;51.102;5.882;2024-03-25T08:56:44;100259.63;;;11.76;100.00
78016;BME280;67223;51.102;5.882;2024-03-25T08:59:10;100289.91;;;11.76;100.00
78016;BME280;67223;51.102;5.882;2024-03-25T09:01:35;100265.78;;;12.23;100.00
78016;BME280;67223;51.102;5.882;2024-03-25T09:04:01;100308.38;;;12.06;100.00
78016;BME280;67223;51.102;5.882;2024-03-25T09:06:27;100316.91;;;11.92;100.00
78016;BME280;67223;51.102;5.882;2024-03-25T09:08:53;100290.34;;;12.36;100.00
78016;BME280;67223;51.102;5.882;2024-03-25T09:11:54;100293.25;;;12.87;100.00
78016;BME280;67223;51.102;5.882;2024-03-25T09:14:20;100303.31;;;13.21;100.00
78016;BME280;67223;51.102;5.882;2024-03-25T09:16:45;100325.47;;;13.23;100.00
78016;BME280;67223;51.102;5.882;2024-03-25T09:19:11;100329.41;;;13.54;100.00
78016;BME280;67223;51.102;5.882;2024-03-25T09:21:36;100375.25;;;13.43;100.00
78016;BME280;67223;51.102;5.882;2024-03-25T09:24:02;100394.03;;;13.43;100.00
78016;BME280;67223;51.102;5.882;2024-03-25T09:26:28;100382.97;;;13.64;100.00
78016;BME280;67223;51.102;5.882;2024-03-25T09:28:53;100407.59;;;13.59;100.00
78016;BME280;67223;51.102;5.882;2024-03-25T09:31:19;100424.75;;;13.31;100.00
78016;BME280;67223;51.102;5.882;2024-03-25T09:33:44;100418.56;;;12.76;100.00
78016;BME280;67223;51.102;5.882;2024-03-25T09:36:10;100401.19;;;13.07;100.00
78016;BME280;67223;51.102;5.882;2024-03-25T09:38:36;100405.00;;;13.50;100.00
78016;BME280;67223;51.102;5.882;2024-03-25T09:41:01;100417.84;;;13.46;100.00
78016;BME280;67223;51.102;5.882;2024-03-25T09:46:03;100375.03;;;14.06;100.00
78016;BME280;67223;51.102;5.882;2024-03-25T09:48:30;100379.06;;;14.61;100.00
78016;BME280;67223;51.102;5.882;2024-03-25T09:50:55;100398.97;;;14.85;100.00
78016;BME280;67223;51.102;5.882;2024-03-25T09:53:21;100422.16;;;14.86;100.00
78016;BME280;67223;51.102;5.882;2024-03-25T09:55:47;100432.84;;;14.70;100.00
78016;BME280;67223;51.102;5.882;2024-03-25T09:58:14;100415.22;;;15.25;100.00
78016;BME280;67223;51.102;5.882;2024-03-25T10:00:40;100438.19;;;16.10;100.00
78016;BME280;67223;51.102;5.882;2024-03-25T10:03:06;100452.66;;;16.17;100.00
78016;BME280;67223;51.102;5.882;2024-03-25T10:05:32;100454.66;;;16.15;100.00
78016;BME280;67223;51.102;5.882;2024-03-25T10:07:58;100465.97;;;15.20;100.00
78016;BME280;67223;51.102;5.882;2024-03-25T10:10:23;100462.22;;;14.63;100.00
78016;BME280;67223;51.102;5.882;2024-03-25T10:12:49;100475.94;;;14.52;100.00
78016;BME280;67223;51.102;5.882;2024-03-25T10:15:17;100471.25;;;14.88;100.00
78016;BME280;67223;51.102;5.882;2024-03-25T10:17:43;100473.69;;;15.89;100.00
78016;BME280;67223;51.102;5.882;2024-03-25T10:20:18;100483.31;;;15.84;85.71
78016;BME280;67223;51.102;5.882;2024-03-25T10:22:44;100487.63;;;16.58;80.82
78016;BME280;67223;51.102;5.882;2024-03-25T10:25:26;100480.41;;;17.13;75.81
78016;BME280;67223;51.102;5.882;2024-03-25T10:27:59;100470.81;;;17.34;83.90
78016;BME280;67223;51.102;5.882;2024-03-25T10:30:26;100472.91;;;17.54;85.63
78016;BME280;67223;51.102;5.882;2024-03-25T10:33:05;100467.28;;;17.02;85.67
78016;BME280;67223;51.102;5.882;2024-03-25T10:35:35;100470.56;;;17.20;84.33
78016;BME280;67223;51.102;5.882;2024-03-25T10:38:06;100473.72;;;17.32;83.77
78016;BME280;67223;51.102;5.882;2024-03-25T10:40:34;100463.81;;;18.01;78.33
78016;BME280;67223;51.102;5.882;2024-03-25T10:43:08;100461.63;;;18.19;69.06
78016;BME280;67223;51.102;5.882;2024-03-25T10:45:48;100456.47;;;18.10;73.67
78016;BME280;67223;51.102;5.882;2024-03-25T10:48:21;100449.13;;;17.50;77.64
78016;BME280;67223;51.102;5.882;2024-03-25T10:50:51;100444.53;;;18.04;77.20
78016;BME280;67223;51.102;5.882;2024-03-25T10:53:18;100448.47;;;18.16;77.43
78016;BME280;67223;51.102;5.882;2024-03-25T10:55:54;100444.25;;;18.51;80.19
78016;BME280;67223;51.102;5.882;2024-03-25T10:58:23;100430.97;;;18.27;76.32
78016;BME280;67223;51.102;5.882;2024-03-25T11:00:51;100426.72;;;18.91;82.25
78016;BME280;67223;51.102;5.882;2024-03-25T11:03:17;100433.13;;;18.31;72.37
78016;BME280;67223;51.102;5.882;2024-03-25T11:05:43;100442.53;;;18.21;62.55
78016;BME280;67223;51.102;5.882;2024-03-25T11:08:15;100432.50;;;18.73;68.53
78016;BME280;67223;51.102;5.882;2024-03-25T11:10:43;100417.22;;;17.99;100.00
78016;BME280;67223;51.102;5.882;2024-03-25T11:13:17;100430.03;;;19.22;78.86
78016;BME280;67223;51.102;5.882;2024-03-25T11:15:44;100424.97;;;19.98;66.21
78016;BME280;67223;51.102;5.882;2024-03-25T11:18:17;100422.56;;;19.82;56.04
78016;BME280;67223;51.102;5.882;2024-03-25T11:20:43;100415.59;;;19.51;49.10
78016;BME280;67223;51.102;5.882;2024-03-25T11:23:10;100415.59;;;19.01;74.10
78016;BME280;67223;51.102;5.882;2024-03-25T11:25:40;100407.94;;;19.40;64.06
78016;BME280;67223;51.102;5.882;2024-03-25T11:28:06;100408.03;;;19.11;62.58
78016;BME280;67223;51.102;5.882;2024-03-25T11:30:32;100403.22;;;19.27;57.28
78016;BME280;67223;51.102;5.882;2024-03-25T11:33:02;100401.06;;;19.80;70.20
78016;BME280;67223;51.102;5.882;2024-03-25T11:35:28;100392.31;;;19.21;89.92
78016;BME280;67223;51.102;5.882;2024-03-25T11:37:54;100381.47;;;18.85;96.34
78016;BME280;67223;51.102;5.882;2024-03-25T11:40:19;100390.19;;;19.52;54.63
78016;BME280;67223;51.102;5.882;2024-03-25T11:42:45;100385.25;;;19.41;56.21
78016;BME280;67223;51.102;5.882;2024-03-25T11:45:21;100375.88;;;20.35;46.59
78016;BME280;67223;51.102;5.882;2024-03-25T11:47:48;100369.34;;;20.64;46.18
78016;BME280;67223;51.102;5.882;2024-03-25T11:50:18;100367.38;;;20.17;46.17
78016;BME280;67223;51.102;5.882;2024-03-25T11:52:44;100371.47;;;20.34;43.94
78016;BME280;67223;51.102;5.882;2024-03-25T11:55:10;100365.41;;;19.55;76.71
78016;BME280;67223;51.102;5.882;2024-03-25T11:57:37;100363.38;;;19.85;71.88
78016;BME280;67223;51.102;5.882;2024-03-25T12:00:07;100359.34;;;20.02;44.72
78016;BME280;67223;51.102;5.882;2024-03-25T12:02:36;100354.72;;;19.11;39.68
78016;BME280;67223;51.102;5.882;2024-03-25T12:05:03;100348.88;;;19.29;79.72
78016;BME280;67223;51.102;5.882;2024-03-25T12:07:28;100338.91;;;18.93;62.84
78016;BME280;67223;51.102;5.882;2024-03-25T12:09:54;100348.75;;;19.80;47.80
78016;BME280;67223;51.102;5.882;2024-03-25T12:12:37;100337.97;;;19.44;67.48
78016;BME280;67223;51.102;5.882;2024-03-25T12:15:05;100325.38;;;19.78;50.93
78016;BME280;67223;51.102;5.882;2024-03-25T12:17:33;100323.47;;;19.72;52.62
78016;BME280;67223;51.102;5.882;2024-03-25T12:20:08;100313.41;;;19.94;42.43
78016;BME280;67223;51.102;5.882;2024-03-25T12:22:35;100317.06;;;18.30;48.50
78016;BME280;67223;51.102;5.882;2024-03-25T12:25:05;100300.47;;;18.62;46.35
78016;BME280;67223;51.102;5.882;2024-03-25T12:27:31;100299.25;;;18.50;43.64
78016;BME280;67223;51.102;5.882;2024-03-25T12:30:03;100297.22;;;18.37;42.93
78016;BME280;67223;51.102;5.882;2024-03-25T12:32:43;100286.94;;;18.47;46.73
78016;BME280;67223;51.102;5.882;2024-03-25T12:35:14;100277.91;;;18.55;52.20
78016;BME280;67223;51.102;5.882;2024-03-25T12:37:47;100282.66;;;18.68;49.20
78016;BME280;67223;51.102;5.882;2024-03-25T12:40:25;100273.38;;;18.77;46.86
78016;BME280;67223;51.102;5.882;2024-03-25T12:42:54;100273.34;;;18.41;59.29
78016;BME280;67223;51.102;5.882;2024-03-25T12:45:20;100274.22;;;18.27;49.23
78016;BME280;67223;51.102;5.882;2024-03-25T12:47:46;100265.53;;;18.31;74.18
78016;BME280;67223;51.102;5.882;2024-03-25T12:50:11;100266.84;;;18.21;70.24